Time;durP1;ratioP1;P1;durP2;ratioP2;P2;SDS_P1;SDS_P2;PMS_P1;PMS_P2;Temp;Humidity;BMP_temperature;BMP_pressure;BME280_temperature;BME280_humidity;BME280_pressure;Samples;Min_cycle;Max_cycle;Signal;HPM_P1;HPM_P2
2022/05/10 00:00:29;;;;;;;1.13;0.70;;;14.70;63.30;;;;;;5094991;28;20439;-70
2022/05/10 00:02:58;;;;;;;0.95;0.65;;;14.70;63.40;;;;;;5113181;28;20032;-71
2022/05/10 00:05:35;;;;;;;0.50;0.50;;;14.60;63.40;;;;;;5094993;28;20439;-70
2022/05/10 00:08:03;;;;;;;0.80;0.80;;;14.60;63.60;;;;;;5113223;28;20558;-68
2022/05/10 00:10:29;;;;;;;1.00;0.60;;;14.50;63.60;;;;;;5113173;28;20401;-69
2022/05/10 00:12:54;;;;;;;0.90;0.60;;;14.50;63.70;;;;;;5113071;28;20043;-71
2022/05/10 00:15:20;;;;;;;0.68;0.60;;;14.40;63.70;;;;;;5112890;28;20044;-70
2022/05/10 00:17:47;;;;;;;0.75;0.70;;;14.40;63.90;;;;;;5113360;28;20040;-71
2022/05/10 00:20:18;;;;;;;1.10;0.80;;;14.40;63.90;;;;;;5113343;28;20065;-71
2022/05/10 00:22:44;;;;;;;0.40;0.40;;;14.40;64.00;;;;;;5113034;28;20043;-72
2022/05/10 00:25:14;;;;;;;0.60;0.60;;;14.40;64.10;;;;;;5112910;28;20511;-69
2022/05/10 00:27:40;;;;;;;0.80;0.70;;;14.30;64.10;;;;;;5095047;28;20401;-71
2022/05/10 00:30:07;;;;;;;0.95;0.70;;;14.30;64.20;;;;;;5112619;28;20036;-69
2022/05/10 00:32:35;;;;;;;0.75;0.75;;;14.30;64.30;;;;;;5110718;28;20044;-68
2022/05/10 00:35:03;;;;;;;1.05;0.70;;;14.20;64.30;;;;;;5077412;28;20038;-69
2022/05/10 00:37:29;;;;;;;0.82;0.55;;;14.20;64.40;;;;;;5113302;28;20090;-70
2022/05/10 00:39:55;;;;;;;0.75;0.70;;;14.20;64.50;;;;;;5094455;28;20477;-70
2022/05/10 00:42:29;;;;;;;0.80;0.80;;;14.20;64.60;;;;;;5112658;28;20057;-72
2022/05/10 00:45:08;;;;;;;1.15;0.88;;;14.00;64.60;;;;;;5094102;28;20579;-70
2022/05/10 00:47:53;;;;;;;0.82;0.60;;;14.10;64.80;;;;;;5112681;28;20046;-70
2022/05/10 00:50:29;;;;;;;0.77;0.60;;;14.00;64.80;;;;;;5112519;28;20036;-72
2022/05/10 00:53:03;;;;;;;0.60;0.50;;;14.00;64.90;;;;;;5111118;28;20504;-72
2022/05/10 00:55:38;;;;;;;0.80;0.60;;;13.90;65.00;;;;;;5111785;28;20481;-70
2022/05/10 00:58:30;;;;;;;0.77;0.70;;;14.00;65.10;;;;;;5112488;28;20405;-72
2022/05/10 01:00:59;;;;;;;0.65;0.65;;;14.00;65.20;;;;;;5111110;28;20481;-72
2022/05/10 01:03:30;;;;;;;1.30;0.70;;;13.90;65.10;;;;;;5112477;28;20043;-72
2022/05/10 01:06:06;;;;;;;1.17;0.80;;;13.90;65.20;;;;;;5110964;28;20063;-70
2022/05/10 01:09:05;;;;;;;1.02;0.63;;;13.80;65.30;;;;;;5112066;28;20036;-71
2022/05/10 01:11:42;;;;;;;1.20;0.80;;;13.80;65.40;;;;;;5112190;28;20048;-70
2022/05/10 01:14:15;;;;;;;0.70;0.68;;;13.80;65.50;;;;;;5112337;28;20508;-72
2022/05/10 01:16:41;;;;;;;1.17;0.70;;;13.80;65.60;;;;;;5112972;28;20041;-70
2022/05/10 01:19:07;;;;;;;1.08;0.80;;;13.80;65.60;;;;;;5093980;28;20134;-71
2022/05/10 01:21:59;;;;;;;0.77;0.70;;;13.70;65.60;;;;;;5112056;28;20044;-70
2022/05/10 01:24:56;;;;;;;0.70;0.50;;;13.70;65.70;;;;;;5096859;28;20126;-70
2022/05/10 01:27:50;;;;;;;1.17;0.90;;;13.70;65.80;;;;;;5111591;28;20453;-70
2022/05/10 01:30:22;;;;;;;0.77;0.70;;;13.80;65.90;;;;;;5092746;28;20477;-70
2022/05/10 01:36:11;;;;;;;1.08;0.80;;;13.70;66.00;;;;;;5111665;28;20090;-73
2022/05/10 01:39:01;;;;;;;1.65;1.10;;;13.70;66.10;;;;;;5078525;28;20040;-73
2022/05/10 01:41:57;;;;;;;1.83;0.80;;;13.60;66.10;;;;;;5096886;28;20118;-70
2022/05/10 01:44:41;;;;;;;0.85;0.85;;;13.60;66.30;;;;;;5111477;28;20040;-70
2022/05/10 01:47:23;;;;;;;1.52;1.23;;;13.70;66.40;;;;;;5112132;28;20043;-70
2022/05/10 01:50:18;;;;;;;0.88;0.70;;;13.60;66.50;;;;;;5110898;28;20085;-71
2022/05/10 01:53:07;;;;;;;1.05;0.90;;;13.50;66.50;;;;;;5098256;28;20042;-72
2022/05/10 01:55:39;;;;;;;1.10;0.70;;;13.50;66.50;;;;;;5096412;28;20040;-70
2022/05/10 01:58:22;;;;;;;1.42;0.93;;;13.50;66.60;;;;;;5111750;28;20048;-71
2022/05/10 02:00:55;;;;;;;1.23;1.00;;;13.50;66.70;;;;;;5111868;28;20040;-72
2022/05/10 02:03:44;;;;;;;1.38;1.00;;;13.50;66.80;;;;;;5111505;28;20070;-72
2022/05/10 02:06:29;;;;;;;1.00;0.90;;;13.40;66.80;;;;;;5096723;28;20035;-72
2022/05/10 02:09:19;;;;;;;1.05;0.90;;;13.50;67.00;;;;;;5096742;28;20051;-73
2022/05/10 02:11:52;;;;;;;1.00;0.90;;;13.50;67.00;;;;;;5115087;28;20035;-70
2022/05/10 02:14:33;;;;;;;0.90;0.65;;;13.40;67.00;;;;;;5113667;28;20484;-72
2022/05/10 02:17:07;;;;;;;0.63;0.57;;;13.40;67.10;;;;;;5114944;28;20489;-73
2022/05/10 02:19:48;;;;;;;0.93;0.60;;;13.40;67.10;;;;;;5114978;28;20051;-73
2022/05/10 02:22:32;;;;;;;1.05;0.70;;;13.40;67.20;;;;;;5115443;28;20078;-72
2022/05/10 02:25:02;;;;;;;1.05;0.80;;;13.40;67.30;;;;;;5115024;28;20405;-71
2022/05/10 02:27:37;;;;;;;1.08;0.80;;;13.40;67.40;;;;;;5114644;28;20512;-71
2022/05/10 02:30:08;;;;;;;1.00;0.82;;;13.40;67.50;;;;;;5113109;28;20043;-71
2022/05/10 02:35:17;;;;;;;1.40;1.00;;;13.30;67.60;;;;;;5112859;28;20058;-73
2022/05/10 02:37:43;;;;;;;1.92;1.15;;;13.20;67.60;;;;;;5114690;28;20039;-73
2022/05/10 02:40:09;;;;;;;1.40;1.00;;;13.30;67.70;;;;;;5115114;28;20042;-73
2022/05/10 02:42:36;;;;;;;2.95;1.30;;;13.30;67.80;;;;;;5114472;28;20067;-73
2022/05/10 02:45:03;;;;;;;0.95;0.82;;;13.30;67.80;;;;;;5115115;28;20046;-72
2022/05/10 02:47:32;;;;;;;1.00;0.88;;;13.30;67.90;;;;;;5115078;28;20031;-73
2022/05/10 02:49:58;;;;;;;1.10;1.00;;;13.30;67.90;;;;;;5114653;28;20153;-73
2022/05/10 02:52:24;;;;;;;1.10;0.88;;;13.40;67.90;;;;;;5114898;28;20049;-71
2022/05/10 02:55:02;;;;;;;1.63;1.02;;;13.40;67.90;;;;;;5096279;28;20069;-70
2022/05/10 02:57:29;;;;;;;1.48;1.10;;;13.50;68.10;;;;;;5113587;28;20122;-71
2022/05/10 02:59:59;;;;;;;1.92;1.30;;;13.40;68.00;;;;;;5114246;28;20075;-70
2022/05/10 03:02:31;;;;;;;1.33;0.98;;;13.30;68.10;;;;;;5114166;28;20070;-71
2022/05/10 03:04:58;;;;;;;2.28;1.23;;;13.40;68.20;;;;;;5095959;28;20043;-72
2022/05/10 03:07:26;;;;;;;1.30;1.10;;;13.40;68.20;;;;;;5096076;28;20471;-73
2022/05/10 03:09:53;;;;;;;1.67;1.00;;;13.30;68.20;;;;;;5114157;28;20047;-73
2022/05/10 03:12:19;;;;;;;1.30;1.20;;;13.40;68.40;;;;;;5114004;28;20400;-71
2022/05/10 03:14:45;;;;;;;1.83;1.27;;;13.40;68.70;;;;;;5114574;28;20039;-71
2022/05/10 03:17:12;;;;;;;1.75;0.90;;;13.40;68.40;;;;;;5095480;28;20067;-73
2022/05/10 03:19:40;;;;;;;2.20;1.30;;;13.40;68.40;;;;;;5114006;28;20074;-70
2022/05/10 03:22:06;;;;;;;1.50;1.10;;;13.40;68.50;;;;;;5113917;28;20050;-71
2022/05/10 03:24:32;;;;;;;1.80;1.40;;;13.40;68.50;;;;;;5113906;28;20051;-71
2022/05/10 03:27:00;;;;;;;1.30;1.15;;;13.40;68.50;;;;;;5113698;28;20404;-71
2022/05/10 03:29:26;;;;;;;1.63;1.13;;;13.40;68.60;;;;;;5113851;28;20050;-71
2022/05/10 03:31:53;;;;;;;1.50;1.08;;;13.40;68.70;;;;;;5111700;28;20162;-71
2022/05/10 03:37:05;;;;;;;1.60;1.20;;;13.40;68.70;;;;;;5113705;28;20165;-71
2022/05/10 03:39:31;;;;;;;1.42;1.10;;;13.40;68.70;;;;;;5095907;28;20126;-71
2022/05/10 03:41:57;;;;;;;1.58;1.10;;;13.50;68.80;;;;;;5114099;28;20050;-71
2022/05/10 03:44:23;;;;;;;1.45;1.05;;;13.40;68.70;;;;;;5111329;28;20035;-70
2022/05/10 03:46:49;;;;;;;1.08;0.95;;;13.40;68.80;;;;;;5113430;28;20062;-70
2022/05/10 03:49:15;;;;;;;2.03;1.30;;;13.50;68.90;;;;;;5113841;28;20036;-71
2022/05/10 03:51:41;;;;;;;1.95;1.30;;;13.40;68.90;;;;;;5114014;28;20035;-71
2022/05/10 03:54:07;;;;;;;1.58;1.20;;;13.40;69.00;;;;;;5113756;28;20489;-73
2022/05/10 03:56:34;;;;;;;1.75;1.20;;;13.50;69.10;;;;;;5095153;28;20086;-71
2022/05/10 03:59:00;;;;;;;1.83;1.10;;;13.30;69.10;;;;;;5113592;28;20036;-71
2022/05/10 04:01:26;;;;;;;1.75;1.20;;;13.40;69.20;;;;;;5113407;28;20353;-71
2022/05/10 04:03:52;;;;;;;1.65;1.08;;;13.40;69.20;;;;;;5095660;28;20114;-71
2022/05/10 04:06:18;;;;;;;1.60;1.10;;;13.40;69.20;;;;;;5114014;28;20070;-71
2022/05/10 04:08:45;;;;;;;1.38;1.00;;;13.40;69.20;;;;;;5113702;28;20456;-73
2022/05/10 04:11:12;;;;;;;1.08;0.90;;;13.50;69.40;;;;;;5113572;28;20126;-73
2022/05/10 04:13:40;;;;;;;0.85;0.82;;;13.40;69.30;;;;;;5113919;28;20043;-73
2022/05/10 04:16:06;;;;;;;2.10;1.10;;;13.50;69.40;;;;;;5113969;28;20067;-73
2022/05/10 04:18:31;;;;;;;1.90;1.00;;;13.50;69.40;;;;;;5113611;28;20144;-73
2022/05/10 04:20:57;;;;;;;2.55;1.23;;;13.60;69.50;;;;;;5113293;28;20040;-71
2022/05/10 04:23:24;;;;;;;1.08;0.98;;;13.50;69.50;;;;;;5113166;28;20067;-73
2022/05/10 04:25:51;;;;;;;1.63;1.10;;;13.40;69.40;;;;;;5113634;28;20447;-73
2022/05/10 04:28:17;;;;;;;2.60;0.93;;;13.60;69.60;;;;;;5112869;28;20043;-73
2022/05/10 04:30:43;;;;;;;1.75;0.90;;;13.50;69.60;;;;;;5110698;28;20115;-73
2022/05/10 04:33:09;;;;;;;1.40;1.00;;;13.60;69.60;;;;;;5113079;28;20043;-73
2022/05/10 04:35:35;;;;;;;2.05;1.20;;;13.60;69.70;;;;;;5094922;28;20126;-73
2022/05/10 04:38:03;;;;;;;1.48;1.15;;;13.60;69.60;;;;;;5113471;28;20035;-73
2022/05/10 04:43:10;;;;;;;1.42;1.10;;;13.70;69.60;;;;;;5112653;28;20065;-73
2022/05/10 04:45:39;;;;;;;1.45;1.10;;;13.70;69.50;;;;;;5112839;28;20131;-73
2022/05/10 04:48:05;;;;;;;1.52;1.10;;;13.80;69.60;;;;;;5078167;28;20036;-73
2022/05/10 04:50:30;;;;;;;1.90;1.20;;;13.80;69.50;;;;;;5095017;28;20036;-73
2022/05/10 04:52:56;;;;;;;1.52;1.20;;;13.80;69.40;;;;;;5113258;28;20418;-71
2022/05/10 04:55:22;;;;;;;1.38;1.17;;;13.90;69.50;;;;;;5094741;28;20048;-72
2022/05/10 04:57:48;;;;;;;2.17;1.30;;;13.90;69.40;;;;;;5112928;28;20112;-72
2022/05/10 05:00:15;;;;;;;1.08;0.90;;;14.00;69.50;;;;;;5112855;28;20126;-73
2022/05/10 05:02:42;;;;;;;1.60;1.20;;;14.00;69.40;;;;;;5112785;28;20097;-73
2022/05/10 05:05:09;;;;;;;1.40;1.10;;;14.10;69.40;;;;;;5094453;28;20036;-72
2022/05/10 05:07:35;;;;;;;1.60;1.15;;;14.20;69.40;;;;;;5112713;28;20042;-73
2022/05/10 05:10:02;;;;;;;1.20;1.02;;;14.10;69.30;;;;;;5092558;28;20051;-72
2022/05/10 05:12:28;;;;;;;1.10;0.98;;;14.20;69.30;;;;;;5094469;28;20130;-72
2022/05/10 05:14:54;;;;;;;1.75;1.10;;;14.30;69.30;;;;;;5112657;28;20050;-72
2022/05/10 05:17:20;;;;;;;1.23;1.10;;;14.30;69.10;;;;;;5112368;28;20040;-72
2022/05/10 05:19:46;;;;;;;1.33;1.05;;;14.40;69.10;;;;;;5112263;28;20482;-72
2022/05/10 05:22:13;;;;;;;1.23;1.02;;;14.50;69.10;;;;;;5112749;28;20088;-72
2022/05/10 05:24:38;;;;;;;1.58;1.20;;;14.60;69.00;;;;;;5112366;28;20114;-72
2022/05/10 05:27:04;;;;;;;1.90;1.30;;;14.60;68.90;;;;;;5094061;28;20464;-72
2022/05/10 05:29:30;;;;;;;1.23;1.10;;;14.70;68.90;;;;;;5094389;28;20050;-72
2022/05/10 05:31:56;;;;;;;2.10;1.20;;;14.70;68.80;;;;;;5112544;28;20389;-72
2022/05/10 05:34:22;;;;;;;1.58;1.17;;;14.80;68.80;;;;;;5112600;28;20039;-72
2022/05/10 05:37:32;;;;;;;1.10;1.00;;;14.90;68.90;;;;;;5112198;28;20042;-72
2022/05/10 05:39:33;;;;;;;1.10;1.00;;;14.90;68.90;;;;;;5096832;28;20599;-72
2022/05/10 05:41:59;;;;;;;1.88;1.00;;;14.90;68.90;;;;;;5097882;28;20142;-73
2022/05/10 05:44:24;;;;;;;1.17;0.90;;;15.00;68.90;;;;;;5080533;28;20042;-73
2022/05/10 05:46:50;;;;;;;1.35;1.10;;;15.00;69.00;;;;;;5115799;28;20375;-73
2022/05/10 05:49:16;;;;;;;1.50;1.20;;;15.00;69.00;;;;;;5115717;28;20097;-73
2022/05/10 05:51:42;;;;;;;1.45;1.00;;;15.00;69.00;;;;;;5115816;28;20051;-73
2022/05/10 05:54:09;;;;;;;1.15;1.00;;;15.10;69.10;;;;;;5115616;28;20118;-72
2022/05/10 05:56:35;;;;;;;1.33;0.90;;;15.10;69.10;;;;;;5115844;28;20040;-72
2022/05/10 05:59:01;;;;;;;1.70;1.25;;;15.20;69.10;;;;;;5116015;28;20131;-72
2022/05/10 06:01:27;;;;;;;1.45;1.02;;;15.20;69.10;;;;;;5115418;28;20127;-73
2022/05/10 06:03:55;;;;;;;1.30;1.00;;;15.30;69.10;;;;;;5115492;28;20119;-73
2022/05/10 06:06:22;;;;;;;1.75;1.13;;;15.40;69.10;;;;;;5115967;28;20036;-72
2022/05/10 06:08:48;;;;;;;1.48;1.08;;;15.40;68.90;;;;;;5097380;28;20043;-71
2022/05/10 06:11:14;;;;;;;1.67;1.10;;;15.40;68.90;;;;;;5115852;28;20055;-71
2022/05/10 06:13:40;;;;;;;1.30;1.05;;;15.50;68.90;;;;;;5115397;28;20044;-71
2022/05/10 06:16:07;;;;;;;1.55;1.10;;;15.60;68.80;;;;;;5115565;28;20047;-71
2022/05/10 06:18:34;;;;;;;1.48;1.10;;;15.70;68.80;;;;;;5115221;28;20043;-71
2022/05/10 06:21:00;;;;;;;1.88;1.15;;;15.80;68.80;;;;;;5115366;28;20032;-71
2022/05/10 06:23:26;;;;;;;1.00;0.90;;;15.80;68.60;;;;;;5115167;28;20127;-71
2022/05/10 06:25:52;;;;;;;1.40;1.10;;;15.90;68.60;;;;;;5115746;28;20058;-71
2022/05/10 06:28:19;;;;;;;2.35;1.50;;;16.00;68.50;;;;;;5115260;28;20489;-71
2022/05/10 06:30:45;;;;;;;1.98;1.30;;;16.10;68.50;;;;;;5115076;28;20126;-71
2022/05/10 06:33:12;;;;;;;2.38;1.40;;;16.20;68.50;;;;;;5115215;28;20070;-71
2022/05/10 06:35:38;;;;;;;1.40;1.23;;;16.20;68.50;;;;;;5115025;28;20050;-71
2022/05/10 06:38:20;;;;;;;1.88;1.30;;;16.30;68.40;;;;;;5114801;28;20405;-71
2022/05/10 06:40:47;;;;;;;1.05;0.95;;;16.50;68.40;;;;;;5115063;28;20063;-71
2022/05/10 06:43:14;;;;;;;2.38;1.70;;;16.60;68.20;;;;;;5115498;28;20036;-71
2022/05/10 06:45:41;;;;;;;1.40;1.30;;;16.70;68.10;;;;;;5114946;28;20051;-71
2022/05/10 06:48:07;;;;;;;1.48;1.10;;;16.80;67.90;;;;;;5096882;28;20453;-71
2022/05/10 06:50:33;;;;;;;1.52;0.88;;;17.00;67.80;;;;;;5114915;28;20047;-71
2022/05/10 06:52:59;;;;;;;1.95;1.35;;;17.10;67.60;;;;;;5114505;28;20501;-72
2022/05/10 06:55:28;;;;;;;2.45;1.50;;;17.20;67.50;;;;;;5114931;28;20032;-72
2022/05/10 06:57:53;;;;;;;2.08;1.50;;;17.30;67.40;;;;;;5114389;28;20123;-72
2022/05/10 07:00:20;;;;;;;3.70;1.67;;;17.40;67.30;;;;;;5114617;28;20468;-72
2022/05/10 07:02:45;;;;;;;1.63;1.40;;;17.60;67.10;;;;;;5114750;28;20078;-72
2022/05/10 07:05:13;;;;;;;3.97;1.70;;;17.70;66.90;;;;;;5114245;28;20059;-71
2022/05/10 07:07:39;;;;;;;3.15;1.90;;;17.80;66.60;;;;;;5096167;28;20493;-72
2022/05/10 07:10:11;;;;;;;2.20;1.70;;;17.90;66.40;;;;;;5114968;28;20092;-73
2022/05/10 07:12:38;;;;;;;2.70;1.80;;;18.10;66.20;;;;;;5071657;28;20036;-72
2022/05/10 07:15:06;;;;;;;2.95;1.80;;;18.20;66.00;;;;;;5071738;28;20434;-72
2022/05/10 07:17:32;;;;;;;3.67;2.22;;;18.30;65.70;;;;;;5071886;28;20049;-72
2022/05/10 07:19:58;;;;;;;3.45;2.10;;;18.50;65.60;;;;;;5055083;28;20514;-72
2022/05/10 07:22:25;;;;;;;3.25;2.15;;;18.60;65.40;;;;;;5071450;28;20059;-72
2022/05/10 07:24:51;;;;;;;3.22;2.15;;;18.70;65.20;;;;;;5071499;28;20037;-72
2022/05/10 07:27:17;;;;;;;3.15;2.28;;;18.80;65.10;;;;;;5071644;28;20036;-72
2022/05/10 07:29:43;;;;;;;2.33;1.90;;;18.90;65.00;;;;;;5071983;28;20056;-72
2022/05/10 07:32:10;;;;;;;3.58;1.90;;;18.90;64.80;;;;;;5071579;28;20045;-72
2022/05/10 07:34:36;;;;;;;5.20;2.83;;;19.10;64.80;;;;;;5071419;28;20044;-71
2022/05/10 07:37:01;;;;;;;4.57;3.05;;;19.30;64.70;;;;;;5071503;28;20055;-71
2022/05/10 07:39:27;;;;;;;4.28;3.15;;;19.50;64.40;;;;;;5071283;28;20049;-70
2022/05/10 07:41:54;;;;;;;4.47;2.95;;;19.70;64.10;;;;;;5071314;28;20089;-70
2022/05/10 07:44:22;;;;;;;3.67;2.42;;;19.90;63.80;;;;;;5091663;28;20502;-71
2022/05/10 07:46:48;;;;;;;3.88;2.65;;;20.10;64.00;;;;;;5076719;28;20038;-71
2022/05/10 07:49:15;;;;;;;3.13;2.22;;;20.30;63.10;;;;;;5113701;28;20043;-71
2022/05/10 07:51:41;;;;;;;4.47;3.13;;;20.40;62.80;;;;;;5113718;28;20074;-71
2022/05/10 07:54:07;;;;;;;4.60;2.97;;;20.50;62.70;;;;;;5095650;28;20044;-71
2022/05/10 07:56:33;;;;;;;4.63;2.90;;;20.50;62.60;;;;;;5093489;28;20040;-71
2022/05/10 07:58:59;;;;;;;4.15;2.67;;;20.60;62.70;;;;;;5114195;28;20047;-73
2022/05/10 08:01:26;;;;;;;5.57;2.90;;;20.60;62.90;;;;;;5095226;28;20031;-71
2022/05/10 08:03:51;;;;;;;4.32;3.10;;;20.70;62.90;;;;;;5078261;28;20035;-71
2022/05/10 08:06:17;;;;;;;5.00;3.33;;;20.80;62.60;;;;;;5113625;28;20515;-71
2022/05/10 08:08:43;;;;;;;3.53;2.65;;;20.90;62.50;;;;;;5113974;28;20484;-71
2022/05/10 08:11:09;;;;;;;4.63;2.50;;;21.00;62.40;;;;;;5114121;28;20036;-71
2022/05/10 08:13:37;;;;;;;3.45;1.92;;;21.10;62.50;;;;;;5113917;28;20035;-71
2022/05/10 08:16:03;;;;;;;4.63;2.55;;;21.10;62.50;;;;;;5113820;28;20401;-71
2022/05/10 08:18:29;;;;;;;3.70;2.50;;;21.20;62.60;;;;;;5095242;28;20031;-71
2022/05/10 08:20:58;;;;;;;2.65;2.05;;;21.20;62.60;;;;;;5095115;28;20489;-71
2022/05/10 08:23:27;;;;;;;3.15;1.98;;;21.20;62.70;;;;;;5113836;28;20039;-71
2022/05/10 08:25:55;;;;;;;3.17;2.50;;;21.30;62.60;;;;;;5095156;28;20039;-71
2022/05/10 08:28:22;;;;;;;4.10;2.65;;;21.30;62.40;;;;;;5113202;28;20040;-71
2022/05/10 08:30:48;;;;;;;6.82;2.72;;;21.40;62.30;;;;;;5095049;28;20050;-71
2022/05/10 08:33:24;;;;;;;4.47;2.70;;;21.40;62.20;;;;;;5113692;28;20071;-72
2022/05/10 08:35:51;;;;;;;3.47;2.65;;;21.50;62.10;;;;;;5113106;28;20098;-72
2022/05/10 08:38:17;;;;;;;5.43;2.83;;;21.50;62.00;;;;;;5113098;28;20060;-72
2022/05/10 08:40:52;;;;;;;4.63;2.60;;;21.60;62.00;;;;;;5113609;28;20119;-71
2022/05/10 08:43:27;;;;;;;5.40;2.90;;;21.60;61.80;;;;;;5113581;28;20043;-71
2022/05/10 08:45:54;;;;;;;4.50;2.50;;;21.60;61.80;;;;;;5111287;28;20051;-72
2022/05/10 08:48:21;;;;;;;3.75;2.25;;;21.70;61.80;;;;;;5094825;28;20047;-71
2022/05/10 08:50:48;;;;;;;3.38;2.30;;;21.70;61.80;;;;;;5113503;28;20035;-71
2022/05/10 08:53:17;;;;;;;2.75;2.10;;;21.70;61.80;;;;;;5113022;28;20118;-72
2022/05/10 08:55:51;;;;;;;2.55;2.10;;;21.70;61.80;;;;;;5112838;28;20049;-71
2022/05/10 08:58:42;;;;;;;3.53;1.80;;;21.70;61.80;;;;;;5111722;28;20096;-71
2022/05/10 09:01:16;;;;;;;2.05;1.77;;;21.70;61.70;;;;;;5097204;28;20034;-71
2022/05/10 09:03:50;;;;;;;2.25;1.80;;;21.80;61.80;;;;;;5110700;28;20431;-71
2022/05/10 09:06:40;;;;;;;4.90;2.20;;;21.70;61.60;;;;;;5111374;28;20477;-71
2022/05/10 09:09:23;;;;;;;4.20;2.00;;;21.70;62.20;;;;;;5112649;28;20122;-71
2022/05/10 09:11:55;;;;;;;2.60;2.00;;;21.80;61.50;;;;;;5112578;28;20504;-71
2022/05/10 09:14:27;;;;;;;4.03;2.03;;;21.80;61.40;;;;;;5094270;28;21052;-71
2022/05/10 09:16:54;;;;;;;2.72;2.13;;;21.80;61.20;;;;;;5118826;28;20039;-72
2022/05/10 09:19:26;;;;;;;2.78;1.92;;;21.90;61.20;;;;;;5119293;28;20047;-71
2022/05/10 09:21:55;;;;;;;3.70;2.20;;;21.90;61.00;;;;;;5119696;28;20048;-71
2022/05/10 09:24:33;;;;;;;3.05;1.98;;;22.00;60.80;;;;;;5119044;28;20069;-72
2022/05/10 09:27:10;;;;;;;2.88;1.90;;;22.20;60.70;;;;;;5119056;28;20038;-72
2022/05/10 09:29:40;;;;;;;3.25;1.80;;;22.20;60.50;;;;;;5118068;28;20148;-72
2022/05/10 09:35:12;;;;;;;3.00;1.63;;;22.40;60.20;;;;;;5118862;28;20044;-71
2022/05/10 09:37:45;;;;;;;2.45;1.70;;;22.50;60.00;;;;;;5119035;28;20071;-71
2022/05/10 09:40:35;;;;;;;2.70;1.80;;;22.60;59.70;;;;;;5118891;28;20130;-72
2022/05/10 09:43:22;;;;;;;2.70;1.90;;;22.90;59.40;;;;;;5117263;28;20047;-72
2022/05/10 09:46:11;;;;;;;3.22;2.10;;;23.10;58.70;;;;;;5099703;28;20035;-72
2022/05/10 09:48:38;;;;;;;4.18;2.22;;;23.20;58.20;;;;;;5103221;28;20202;-72
2022/05/10 09:51:19;;;;;;;2.70;2.00;;;23.40;57.80;;;;;;5119477;28;20043;-72
2022/05/10 09:53:46;;;;;;;2.40;1.80;;;23.60;57.60;;;;;;5117252;28;20043;-72
2022/05/10 09:56:33;;;;;;;3.25;2.13;;;23.70;57.30;;;;;;5118660;28;20039;-72
2022/05/10 09:59:04;;;;;;;4.30;2.20;;;23.70;57.10;;;;;;5118937;28;20051;-72
2022/05/10 10:01:49;;;;;;;2.88;2.10;;;23.70;56.90;;;;;;5119493;28;20066;-71
2022/05/10 10:04:26;;;;;;;2.22;1.83;;;23.70;57.00;;;;;;5119148;28;20031;-72
2022/05/10 10:07:06;;;;;;;2.63;1.90;;;23.90;56.80;;;;;;5118538;28;20040;-72
2022/05/10 10:09:38;;;;;;;3.58;1.83;;;24.10;56.50;;;;;;5100972;28;20040;-71
2022/05/10 10:12:11;;;;;;;3.38;2.00;;;24.20;56.20;;;;;;5118713;28;20049;-72
2022/05/10 10:14:43;;;;;;;3.90;2.10;;;24.30;55.80;;;;;;5118513;28;20131;-72
2022/05/10 10:17:20;;;;;;;3.20;2.40;;;24.30;55.90;;;;;;5100429;28;20032;-72
2022/05/10 10:19:52;;;;;;;2.75;2.10;;;24.30;55.80;;;;;;5118742;28;20070;-71
2022/05/10 10:22:28;;;;;;;2.60;2.00;;;24.40;55.80;;;;;;5100828;28;20044;-72
2022/05/10 10:25:03;;;;;;;2.85;2.10;;;24.50;55.60;;;;;;5101648;28;20035;-72
2022/05/10 10:27:38;;;;;;;3.20;2.13;;;24.60;55.20;;;;;;5114963;28;20044;-72
2022/05/10 10:30:17;;;;;;;3.10;2.08;;;24.70;55.10;;;;;;5113082;28;20044;-72
2022/05/10 10:32:48;;;;;;;3.22;2.15;;;24.70;55.00;;;;;;5115241;28;20043;-71
2022/05/10 10:35:23;;;;;;;3.70;2.20;;;24.70;54.80;;;;;;5114694;28;20213;-72
2022/05/10 10:37:55;;;;;;;1.92;1.70;;;24.70;54.90;;;;;;5096840;28;20115;-72
2022/05/10 10:40:43;;;;;;;3.58;2.20;;;24.80;55.00;;;;;;5096723;28;20048;-72
2022/05/10 10:43:21;;;;;;;3.55;2.00;;;24.90;54.80;;;;;;5080086;28;20035;-72
2022/05/10 10:45:54;;;;;;;2.10;1.85;;;25.00;54.60;;;;;;5114751;28;20059;-72
2022/05/10 10:48:42;;;;;;;3.05;2.22;;;25.00;54.50;;;;;;5096596;28;20100;-71
2022/05/10 10:51:09;;;;;;;2.97;2.17;;;25.00;54.40;;;;;;5113055;28;20066;-72
2022/05/10 10:53:35;;;;;;;3.47;2.33;;;25.20;54.20;;;;;;5115168;28;20166;-71
2022/05/10 10:56:21;;;;;;;3.28;2.22;;;25.10;53.90;;;;;;5114991;28;20039;-71
2022/05/10 10:59:09;;;;;;;3.60;2.45;;;24.90;54.30;;;;;;5079489;28;20433;-72
2022/05/10 11:02:15;;;;;;;2.45;2.00;;;24.90;54.50;;;;;;5114892;28;20085;-72
2022/05/10 11:05:05;;;;;;;2.08;1.85;;;24.90;54.70;;;;;;5114422;28;20028;-72
2022/05/10 11:07:51;;;;;;;;;;;24.90;54.70;;;;;;5115187;28;20127;-72
2022/05/10 11:10:31;;;;;;;4.28;2.17;;;25.00;54.80;;;;;;5099504;28;19911;-72
2022/05/10 11:13:20;;;;;;;2.80;2.03;;;25.00;54.80;;;;;;5113219;28;20043;-72
2022/05/10 11:16:03;;;;;;;2.72;2.00;;;24.90;54.50;;;;;;5114448;28;20043;-72
2022/05/10 11:18:56;;;;;;;3.70;1.98;;;24.90;54.50;;;;;;5112987;28;20093;-72
2022/05/10 11:22:01;;;;;;;2.05;1.60;;;24.90;54.70;;;;;;5113782;28;20092;-72
2022/05/10 11:24:52;;;;;;;2.63;1.90;;;24.90;54.70;;;;;;5114227;28;20043;-72
2022/05/10 11:27:53;;;;;;;2.47;1.75;;;25.00;54.60;;;;;;5113815;28;20040;-73
2022/05/10 11:30:56;;;;;;;1.95;1.50;;;25.00;54.40;;;;;;5101857;28;20032;-73
2022/05/10 11:33:36;;;;;;;2.10;1.83;;;24.90;54.50;;;;;;5098997;28;20042;-72
2022/05/10 11:36:28;;;;;;;2.27;1.67;;;24.90;54.50;;;;;;5079947;28;20405;-73
2022/05/10 11:39:11;;;;;;;3.00;1.55;;;25.00;54.40;;;;;;5097839;28;20288;-73
2022/05/10 11:42:06;;;;;;;2.83;1.90;;;25.10;54.20;;;;;;5113956;28;20054;-72
2022/05/10 11:44:55;;;;;;;2.10;1.65;;;25.10;54.00;;;;;;5098738;28;20093;-73
2022/05/10 11:47:56;;;;;;;2.63;1.80;;;25.10;54.10;;;;;;5113549;28;20036;-72
2022/05/10 11:54:05;;;;;;;1.88;1.50;;;25.00;53.90;;;;;;5103812;28;20493;-72
2022/05/10 11:56:36;;;;;;;2.20;1.63;;;25.00;54.10;;;;;;5113763;28;20050;-73
2022/05/10 11:59:03;;;;;;;;;;;25.00;54.10;;;;;;5113902;28;20500;-73
2022/05/10 12:01:47;;;;;;;3.92;1.90;;;25.10;54.10;;;;;;5111582;28;19912;-73
2022/05/10 12:04:46;;;;;;;3.28;1.70;;;24.90;53.80;;;;;;5113459;28;20093;-73
2022/05/10 12:07:33;;;;;;;2.55;1.92;;;24.90;53.80;;;;;;5113538;28;20036;-73
2022/05/10 12:10:03;;;;;;;2.78;2.05;;;24.90;53.70;;;;;;5081331;28;20043;-72
2022/05/10 12:12:57;;;;;;;2.60;1.90;;;24.90;53.70;;;;;;5095131;28;20150;-73
2022/05/10 12:21:32;;;;;;;2.67;1.70;;;24.90;53.70;;;;;;5113299;28;20040;-72
2022/05/10 12:24:11;;;;;;;3.47;1.70;;;25.10;53.50;;;;;;5098194;28;20131;-73
2022/05/10 12:26:49;;;;;;;2.42;1.80;;;25.10;53.20;;;;;;5111987;28;20046;-72
2022/05/10 12:29:36;;;;;;;2.88;1.90;;;25.20;53.30;;;;;;5113554;28;20050;-72
2022/05/10 12:32:09;;;;;;;2.15;1.70;;;25.10;53.10;;;;;;5113474;28;20046;-73
2022/05/10 12:34:50;;;;;;;2.83;1.90;;;25.10;53.30;;;;;;5113567;28;20410;-73
2022/05/10 12:37:48;;;;;;;2.00;1.80;;;25.10;53.20;;;;;;5113099;28;20081;-72
2022/05/10 12:40:21;;;;;;;2.83;1.75;;;25.10;53.40;;;;;;5099624;28;20048;-73
2022/05/10 12:43:19;;;;;;;2.35;1.70;;;25.10;53.50;;;;;;5094571;28;20044;-73
2022/05/10 12:46:19;;;;;;;2.45;1.90;;;25.10;53.50;;;;;;5112692;28;20043;-71
2022/05/10 12:49:12;;;;;;;1.80;1.50;;;25.10;53.40;;;;;;5112417;28;20043;-71
2022/05/10 12:51:45;;;;;;;3.15;1.92;;;25.10;53.40;;;;;;5092315;28;20046;-72
2022/05/10 12:54:37;;;;;;;2.13;1.70;;;25.10;53.20;;;;;;5112203;28;20061;-72
2022/05/10 12:57:40;;;;;;;2.85;1.90;;;25.10;53.20;;;;;;5098676;28;20051;-71
2022/05/10 13:00:12;;;;;;;3.50;1.92;;;25.00;53.20;;;;;;5095770;28;20048;-73
2022/05/10 13:02:41;;;;;;;2.72;2.00;;;25.00;53.20;;;;;;5075979;28;20558;-72
2022/05/10 13:05:14;;;;;;;3.03;1.92;;;24.90;53.20;;;;;;5113064;28;20043;-72
2022/05/10 13:08:10;;;;;;;2.20;1.63;;;24.90;53.20;;;;;;5094667;28;20116;-72
2022/05/10 13:10:37;;;;;;;2.78;1.77;;;24.90;53.30;;;;;;5096143;28;20043;-72
2022/05/10 13:13:10;;;;;;;3.28;1.77;;;24.90;53.30;;;;;;5113178;28;20031;-72
2022/05/10 13:15:45;;;;;;;2.05;1.60;;;24.90;53.20;;;;;;5094395;28;20043;-72
2022/05/10 13:18:21;;;;;;;2.88;1.80;;;24.90;53.10;;;;;;5111295;28;20043;-72
2022/05/10 13:20:50;;;;;;;3.13;1.90;;;24.80;53.10;;;;;;5112834;28;20063;-72
2022/05/10 13:23:17;;;;;;;2.70;2.20;;;24.90;53.00;;;;;;5095266;28;20047;-71
2022/05/10 13:25:44;;;;;;;2.90;2.00;;;24.70;52.80;;;;;;5077566;28;20401;-72
2022/05/10 13:28:15;;;;;;;7.47;2.55;;;24.70;52.80;;;;;;5095142;28;20039;-72
2022/05/10 13:30:45;;;;;;;3.15;2.35;;;24.70;52.40;;;;;;5111526;28;20052;-72
2022/05/10 13:33:21;;;;;;;1.90;1.67;;;24.70;52.40;;;;;;5110948;28;20507;-73
2022/05/10 13:35:49;;;;;;;3.20;1.88;;;24.70;52.60;;;;;;5112278;28;20036;-72
2022/05/10 13:38:32;;;;;;;3.55;1.98;;;24.80;52.60;;;;;;5112423;28;20076;-72
2022/05/10 13:41:01;;;;;;;1.42;1.30;;;24.80;52.50;;;;;;5112392;28;20059;-72